Time;durP1;ratioP1;P1;durP2;ratioP2;P2;SDS_P1;SDS_P2;PMS_P1;PMS_P2;Temp;Humidity;BMP_temperature;BMP_pressure;BME280_temperature;BME280_humidity;BME280_pressure;Samples;Min_cycle;Max_cycle;Signal;HPM_P1;HPM_P2
2021/01/24 00:00:26;;;;;;;29.90;15.27;;;2.30;99.90;;;;;;4985380;28;20050;-70
2021/01/24 00:02:52;;;;;;;31.93;15.50;;;2.30;99.90;;;;;;4983910;28;20376;-70
2021/01/24 00:05:19;;;;;;;27.87;14.97;;;2.40;99.90;;;;;;4984031;28;20078;-69
2021/01/24 00:07:46;;;;;;;28.37;13.83;;;2.40;99.90;;;;;;4984558;28;20117;-69
2021/01/24 00:10:13;;;;;;;27.80;14.17;;;2.50;99.90;;;;;;4984483;28;20060;-70
2021/01/24 00:12:41;;;;;;;27.03;13.70;;;2.50;99.90;;;;;;4983160;28;20050;-71
2021/01/24 00:15:08;;;;;;;23.47;11.77;;;2.50;99.90;;;;;;4978226;28;20047;-69
2021/01/24 00:17:35;;;;;;;27.07;13.00;;;2.50;99.90;;;;;;4975765;28;20101;-70
2021/01/24 00:20:01;;;;;;;28.17;13.10;;;2.50;99.90;;;;;;4978176;28;20053;-70
2021/01/24 00:22:28;;;;;;;26.27;13.27;;;2.50;99.90;;;;;;4981330;28;20058;-68
2021/01/24 00:24:55;;;;;;;25.97;12.60;;;2.50;99.90;;;;;;4982102;28;20050;-70
2021/01/24 00:27:21;;;;;;;24.50;13.47;;;2.60;99.90;;;;;;4983419;28;20058;-70
2021/01/24 00:29:49;;;;;;;27.07;14.83;;;2.60;99.90;;;;;;4983507;28;20061;-70
2021/01/24 00:32:16;;;;;;;24.97;12.67;;;2.60;99.90;;;;;;4981870;28;20120;-69
2021/01/24 00:34:43;;;;;;;26.57;13.60;;;2.60;99.90;;;;;;4981392;28;20046;-70
2021/01/24 00:37:10;;;;;;;28.00;13.40;;;2.50;99.90;;;;;;4974902;28;20522;-71
2021/01/24 00:39:36;;;;;;;25.57;12.60;;;2.60;99.90;;;;;;4981310;28;20472;-70
2021/01/24 00:42:04;;;;;;;25.43;12.60;;;2.60;99.90;;;;;;4981864;28;20161;-70
2021/01/24 00:44:30;;;;;;;24.27;13.07;;;2.50;99.90;;;;;;4978948;28;20062;-70
2021/01/24 00:46:58;;;;;;;25.87;13.27;;;2.50;99.90;;;;;;4981627;28;20061;-69
2021/01/24 00:49:24;;;;;;;30.77;14.03;;;2.50;99.90;;;;;;4982318;28;20053;-69
2021/01/24 00:51:51;;;;;;;29.20;14.77;;;2.50;99.90;;;;;;4984545;28;20054;-70
2021/01/24 00:54:17;;;;;;;27.17;13.53;;;2.50;99.90;;;;;;4983563;28;20567;-70
2021/01/24 00:56:44;;;;;;;28.27;14.77;;;2.50;99.90;;;;;;4984419;28;20061;-70
2021/01/24 00:59:10;;;;;;;28.27;14.10;;;2.60;99.90;;;;;;4982542;28;20124;-69
2021/01/24 01:01:37;;;;;;;27.30;13.43;;;2.50;99.90;;;;;;4983975;28;20112;-69
2021/01/24 01:04:04;;;;;;;25.83;13.60;;;2.50;99.90;;;;;;4982109;28;20204;-69
2021/01/24 01:06:31;;;;;;;28.63;14.07;;;2.50;99.90;;;;;;4984922;28;20066;-69
2021/01/24 01:08:58;;;;;;;29.77;13.97;;;2.40;99.90;;;;;;4984001;28;20058;-71
2021/01/24 01:11:25;;;;;;;26.43;12.83;;;2.40;99.90;;;;;;4985090;28;20050;-70
2021/01/24 01:13:51;;;;;;;26.97;12.20;;;2.40;99.90;;;;;;4983311;28;20054;-69
2021/01/24 01:16:18;;;;;;;25.77;12.53;;;2.40;99.90;;;;;;4981258;28;20050;-69
2021/01/24 01:18:45;;;;;;;27.43;12.60;;;2.40;99.90;;;;;;4964405;28;20059;-70
2021/01/24 01:21:13;;;;;;;29.53;12.87;;;2.40;99.90;;;;;;4958836;28;20055;-70
2021/01/24 01:23:39;;;;;;;27.57;11.87;;;2.30;99.90;;;;;;4976439;28;20046;-71
2021/01/24 01:26:06;;;;;;;28.37;13.00;;;2.30;99.90;;;;;;4982366;28;20053;-70
2021/01/24 01:28:33;;;;;;;30.83;13.13;;;2.30;99.90;;;;;;4975247;28;20050;-71
2021/01/24 01:30:59;;;;;;;29.07;13.70;;;2.30;99.90;;;;;;4961681;28;20047;-70
2021/01/24 01:33:26;;;;;;;25.80;12.43;;;2.30;99.90;;;;;;4967842;28;20050;-72
2021/01/24 01:35:52;;;;;;;28.77;12.60;;;2.30;99.90;;;;;;4982715;28;20058;-70
2021/01/24 01:38:20;;;;;;;31.40;14.30;;;2.40;99.90;;;;;;4982514;28;20046;-70
2021/01/24 01:40:46;;;;;;;27.83;11.60;;;2.30;99.90;;;;;;4979493;28;20065;-70
2021/01/24 01:43:13;;;;;;;30.83;13.87;;;2.40;99.90;;;;;;4973368;28;20102;-70
2021/01/24 01:45:39;;;;;;;27.93;12.73;;;2.30;99.90;;;;;;4968185;28;20046;-69
2021/01/24 01:48:07;;;;;;;26.87;12.47;;;2.40;99.90;;;;;;4974122;28;20050;-69
2021/01/24 01:50:33;;;;;;;27.60;13.43;;;2.30;99.90;;;;;;4982262;28;20081;-70
2021/01/24 01:53:01;;;;;;;27.27;12.53;;;2.40;99.90;;;;;;4984090;28;20046;-69
2021/01/24 01:55:29;;;;;;;22.90;11.27;;;2.50;99.90;;;;;;4985354;28;20152;-70
2021/01/24 01:57:56;;;;;;;26.33;12.10;;;2.50;99.90;;;;;;4982412;28;20046;-69
2021/01/24 02:00:23;;;;;;;28.20;12.87;;;2.50;99.90;;;;;;4982499;28;20050;-69
2021/01/24 02:03:06;;;;;;;24.27;11.87;;;2.50;99.90;;;;;;4981400;28;20046;-69
2021/01/24 02:05:41;;;;;;;25.67;12.20;;;2.50;99.90;;;;;;4982475;28;20050;-70
2021/01/24 02:08:13;;;;;;;24.37;11.63;;;2.50;99.90;;;;;;4984076;28;20089;-70
2021/01/24 02:10:45;;;;;;;25.23;12.30;;;2.50;99.90;;;;;;4982785;28;20123;-69
2021/01/24 02:13:22;;;;;;;26.67;12.33;;;2.40;99.90;;;;;;4983472;28;20522;-69
2021/01/24 02:15:50;;;;;;;26.30;11.83;;;2.40;99.90;;;;;;4984858;28;20059;-70
2021/01/24 02:18:17;;;;;;;28.37;14.47;;;2.40;99.90;;;;;;4986246;28;20065;-70
2021/01/24 02:20:47;;;;;;;28.50;13.43;;;2.40;99.90;;;;;;4994424;28;20496;-70
2021/01/24 02:23:17;;;;;;;26.23;12.93;;;2.40;99.90;;;;;;4994448;28;20455;-72
2021/01/24 02:25:51;;;;;;;26.03;12.93;;;2.40;99.90;;;;;;4994872;28;20046;-70
2021/01/24 02:28:29;;;;;;;26.43;13.23;;;2.40;99.90;;;;;;4981920;28;20177;-70
2021/01/24 02:30:57;;;;;;;29.00;13.60;;;2.50;99.90;;;;;;4983028;28;20819;-69
2021/01/24 02:33:28;;;;;;;27.87;13.37;;;2.50;99.90;;;;;;4979993;28;20042;-69
2021/01/24 02:35:57;;;;;;;28.07;14.03;;;2.50;99.90;;;;;;4979272;28;20321;-70
2021/01/24 02:38:25;;;;;;;29.60;14.10;;;2.50;99.90;;;;;;4984841;28;20104;-69
2021/01/24 02:40:53;;;;;;;29.53;14.23;;;2.50;99.90;;;;;;4981475;28;20046;-69
2021/01/24 02:43:21;;;;;;;31.37;14.57;;;2.50;99.90;;;;;;4983437;28;20053;-69
2021/01/24 02:45:51;;;;;;;28.77;12.30;;;2.50;99.90;;;;;;4984098;28;20051;-70
2021/01/24 02:48:20;;;;;;;30.37;14.93;;;2.40;99.90;;;;;;4984811;28;20656;-68
2021/01/24 02:50:48;;;;;;;28.87;13.87;;;2.30;99.90;;;;;;4984568;28;20420;-69
2021/01/24 02:53:15;;;;;;;26.00;12.33;;;2.30;99.90;;;;;;4980896;28;20069;-70
2021/01/24 02:55:43;;;;;;;28.20;13.97;;;2.30;99.90;;;;;;4984888;28;20046;-73
2021/01/24 02:58:09;;;;;;;30.70;15.27;;;2.30;99.90;;;;;;4984113;28;20531;-69
2021/01/24 03:00:36;;;;;;;32.10;15.23;;;2.30;99.90;;;;;;4984070;28;20050;-70
2021/01/24 03:03:03;;;;;;;30.07;15.47;;;2.30;99.90;;;;;;4981756;28;20046;-70
2021/01/24 03:05:30;;;;;;;35.03;15.90;;;2.20;99.90;;;;;;4978510;28;20046;-70
2021/01/24 03:07:57;;;;;;;34.40;16.47;;;2.20;99.90;;;;;;4984645;28;20679;-70
2021/01/24 03:10:25;;;;;;;33.47;15.53;;;2.20;99.90;;;;;;4984639;28;20492;-69
2021/01/24 03:13:03;;;;;;;33.43;16.63;;;2.20;99.90;;;;;;4982566;28;20046;-70
2021/01/24 03:15:31;;;;;;;36.73;16.20;;;2.10;99.90;;;;;;4984461;28;20104;-73
2021/01/24 03:17:59;;;;;;;32.53;15.87;;;2.10;99.90;;;;;;4984205;28;20047;-70
2021/01/24 03:20:29;;;;;;;34.73;16.43;;;2.00;99.90;;;;;;4984179;28;20054;-70
2021/01/24 03:22:57;;;;;;;35.07;16.47;;;2.10;99.90;;;;;;4981003;28;20621;-69
2021/01/24 03:25:25;;;;;;;36.97;16.27;;;2.10;99.90;;;;;;4983574;28;20055;-70
2021/01/24 03:27:52;;;;;;;36.43;16.67;;;2.10;99.90;;;;;;4984922;28;20389;-69
2021/01/24 03:30:20;;;;;;;37.03;16.60;;;2.00;99.90;;;;;;4980575;28;20375;-71
2021/01/24 03:32:46;;;;;;;37.30;17.53;;;2.00;99.90;;;;;;4992765;28;20042;-71
2021/01/24 03:35:14;;;;;;;39.27;18.53;;;1.90;99.90;;;;;;4988139;28;20054;-71
2021/01/24 03:37:40;;;;;;;40.17;17.10;;;2.00;99.90;;;;;;4994262;28;20046;-70
2021/01/24 03:40:09;;;;;;;36.03;17.50;;;2.00;99.90;;;;;;5003501;28;20046;-70
2021/01/24 03:42:35;;;;;;;37.20;16.80;;;2.00;99.90;;;;;;5001776;28;20050;-71
2021/01/24 03:45:02;;;;;;;36.80;17.67;;;2.00;99.90;;;;;;5001848;28;20050;-70
2021/01/24 03:47:29;;;;;;;37.47;18.50;;;1.90;99.90;;;;;;5001784;28;20042;-70
2021/01/24 03:49:55;;;;;;;40.90;17.87;;;1.90;99.90;;;;;;4998481;28;20132;-70
2021/01/24 03:52:22;;;;;;;38.83;19.00;;;1.90;99.90;;;;;;4988716;28;20760;-70
2021/01/24 03:54:49;;;;;;;45.07;19.23;;;1.90;99.90;;;;;;4984330;28;20043;-70
2021/01/24 03:57:16;;;;;;;43.03;18.30;;;1.80;99.90;;;;;;4988761;28;20130;-70
2021/01/24 03:59:43;;;;;;;39.93;18.43;;;1.90;99.90;;;;;;4988841;28;20167;-70
2021/01/24 04:02:09;;;;;;;39.27;17.27;;;1.90;99.90;;;;;;4987249;28;20054;-70
2021/01/24 04:04:36;;;;;;;41.87;18.23;;;1.80;99.90;;;;;;4985397;28;20054;-70
2021/01/24 04:07:02;;;;;;;42.97;19.70;;;1.90;99.90;;;;;;4980792;28;20050;-70
2021/01/24 04:09:29;;;;;;;46.77;20.27;;;2.00;99.90;;;;;;4984069;28;20405;-69
2021/01/24 04:11:56;;;;;;;42.00;19.60;;;2.00;99.90;;;;;;4987061;28;20046;-70
2021/01/24 04:14:23;;;;;;;42.90;19.67;;;2.00;99.90;;;;;;4985595;28;20046;-70
2021/01/24 04:16:49;;;;;;;39.30;18.17;;;1.90;99.90;;;;;;4984234;28;20069;-70
2021/01/24 04:19:16;;;;;;;40.17;20.13;;;2.00;99.90;;;;;;4986874;28;20055;-70
2021/01/24 04:21:42;;;;;;;39.23;17.63;;;2.10;99.90;;;;;;4986688;28;20392;-70
2021/01/24 04:24:09;;;;;;;38.03;18.37;;;2.10;99.90;;;;;;4981738;28;20066;-69
2021/01/24 04:26:36;;;;;;;39.80;18.67;;;2.00;99.90;;;;;;4989366;28;20050;-69
2021/01/24 04:29:02;;;;;;;38.30;19.70;;;2.10;99.90;;;;;;4987264;28;20043;-70
2021/01/24 04:31:30;;;;;;;41.67;18.70;;;2.10;99.90;;;;;;4986144;28;20046;-70
2021/01/24 04:33:57;;;;;;;35.57;17.43;;;2.10;99.90;;;;;;4979567;28;20125;-69
2021/01/24 04:36:23;;;;;;;33.97;17.70;;;2.10;99.90;;;;;;4983177;28;20081;-70
2021/01/24 04:38:50;;;;;;;40.43;19.03;;;2.10;99.90;;;;;;4987296;28;20042;-70
2021/01/24 04:41:17;;;;;;;38.70;19.10;;;2.10;99.90;;;;;;4987619;28;20057;-70
2021/01/24 04:43:45;;;;;;;36.43;17.90;;;2.10;99.90;;;;;;4986839;28;20420;-70
2021/01/24 04:46:12;;;;;;;40.60;19.27;;;2.10;99.90;;;;;;4987945;28;20112;-71
2021/01/24 04:48:40;;;;;;;43.73;20.03;;;2.10;99.90;;;;;;4985199;28;20058;-69
2021/01/24 04:51:07;;;;;;;39.07;18.70;;;2.10;99.90;;;;;;4988255;28;20054;-69
2021/01/24 04:53:37;;;;;;;39.63;18.83;;;2.10;99.90;;;;;;4987581;28;20087;-70
2021/01/24 04:56:04;;;;;;;40.47;18.40;;;2.10;99.90;;;;;;4992614;28;20049;-70
2021/01/24 04:58:31;;;;;;;38.70;17.87;;;2.10;99.90;;;;;;4993563;28;20057;-69
2021/01/24 05:00:58;;;;;;;36.73;18.20;;;2.10;99.90;;;;;;4989334;28;20050;-69
2021/01/24 05:03:25;;;;;;;38.87;19.23;;;2.10;99.90;;;;;;4990709;28;20046;-70
2021/01/24 05:05:52;;;;;;;39.20;18.80;;;2.00;99.90;;;;;;4999974;28;20109;-69
2021/01/24 05:08:23;;;;;;;40.13;18.10;;;2.00;99.90;;;;;;5000708;28;20121;-70
2021/01/24 05:10:54;;;;;;;41.90;18.77;;;2.00;99.90;;;;;;4997620;28;20046;-70
2021/01/24 05:13:26;;;;;;;38.43;17.70;;;2.00;99.90;;;;;;4994823;28;20057;-70
2021/01/24 05:15:55;;;;;;;44.03;19.40;;;2.00;99.90;;;;;;4996621;28;20078;-70
2021/01/24 05:18:22;;;;;;;37.83;17.17;;;2.00;99.90;;;;;;4995316;28;20068;-70
2021/01/24 05:20:50;;;;;;;38.13;17.90;;;1.90;99.90;;;;;;4988353;28;20047;-70
2021/01/24 05:23:20;;;;;;;41.40;17.57;;;2.00;99.90;;;;;;4986699;28;20047;-70
2021/01/24 05:25:46;;;;;;;40.80;17.17;;;2.00;99.90;;;;;;4987828;28;20042;-69
2021/01/24 05:28:21;;;;;;;38.00;17.43;;;2.00;99.90;;;;;;4988007;28;20090;-70
2021/01/24 05:30:48;;;;;;;39.03;16.70;;;2.00;99.90;;;;;;4987728;28;20047;-69
2021/01/24 05:33:19;;;;;;;39.63;15.63;;;2.00;99.90;;;;;;4982701;28;20061;-70
2021/01/24 05:35:49;;;;;;;35.20;15.27;;;1.90;99.90;;;;;;4984890;28;20042;-70
2021/01/24 05:38:22;;;;;;;25.20;10.53;;;1.90;99.90;;;;;;4987165;28;20046;-70
2021/01/24 05:40:49;;;;;;;25.53;11.57;;;1.80;99.90;;;;;;4986604;28;20042;-70
2021/01/24 05:43:17;;;;;;;18.63;7.97;;;1.90;99.90;;;;;;4985551;28;20050;-70
2021/01/24 05:45:44;;;;;;;13.03;5.70;;;1.90;99.90;;;;;;4987390;28;20084;-70
2021/01/24 05:48:11;;;;;;;18.53;6.33;;;1.90;99.90;;;;;;4987728;28;20069;-70
2021/01/24 05:50:37;;;;;;;10.80;5.10;;;1.90;99.90;;;;;;4987399;28;20694;-70
2021/01/24 05:53:04;;;;;;;4.97;1.80;;;1.90;99.90;;;;;;4986561;28;20420;-71
2021/01/24 05:55:33;;;;;;;6.70;3.07;;;1.90;99.90;;;;;;4986362;28;20057;-71
2021/01/24 05:58:15;;;;;;;7.97;3.13;;;2.00;99.90;;;;;;4987853;28;20092;-70
2021/01/24 06:00:43;;;;;;;5.70;2.80;;;2.00;99.90;;;;;;4985350;28;20053;-70
2021/01/24 06:03:10;;;;;;;4.27;2.60;;;2.00;99.90;;;;;;4984125;28;20097;-70
2021/01/24 06:05:37;;;;;;;4.47;1.90;;;2.00;99.90;;;;;;4989847;28;20559;-71
2021/01/24 06:08:04;;;;;;;4.23;1.53;;;2.00;99.90;;;;;;4992337;28;20417;-70
2021/01/24 06:10:31;;;;;;;3.37;1.50;;;2.00;99.90;;;;;;4992581;28;20108;-70
2021/01/24 06:13:00;;;;;;;3.20;1.07;;;2.00;99.90;;;;;;4985613;28;20100;-70
2021/01/24 06:15:29;;;;;;;1.13;0.80;;;1.90;99.90;;;;;;4987324;28;20069;-70
2021/01/24 06:17:57;;;;;;;2.30;1.10;;;1.90;99.90;;;;;;4986619;28;20129;-70
2021/01/24 06:20:31;;;;;;;1.67;0.87;;;1.90;99.90;;;;;;4986597;28;20050;-70
2021/01/24 06:23:05;;;;;;;1.27;0.77;;;1.90;99.90;;;;;;4985235;28;20519;-70
2021/01/24 06:25:35;;;;;;;2.47;1.00;;;1.90;99.90;;;;;;4986859;28;20420;-71
2021/01/24 06:28:07;;;;;;;1.30;0.87;;;1.90;99.90;;;;;;4983529;28;20054;-71
2021/01/24 06:30:35;;;;;;;1.67;0.70;;;1.80;99.90;;;;;;4985894;28;20140;-72
2021/01/24 06:33:15;;;;;;;1.17;0.70;;;1.80;99.90;;;;;;4981427;28;20105;-71
2021/01/24 06:35:47;;;;;;;1.53;0.70;;;1.80;99.90;;;;;;4980313;28;20532;-71
2021/01/24 06:38:27;;;;;;;1.40;0.80;;;1.70;99.90;;;;;;4985215;28;20070;-70
2021/01/24 06:40:55;;;;;;;1.30;0.70;;;1.70;99.90;;;;;;4984164;28;20594;-70
2021/01/24 06:43:41;;;;;;;2.07;1.00;;;1.80;99.90;;;;;;4983913;28;20054;-70
2021/01/24 06:46:09;;;;;;;1.63;0.90;;;1.60;99.90;;;;;;4983092;28;20046;-71
2021/01/24 06:48:43;;;;;;;0.70;0.60;;;1.70;99.90;;;;;;4985361;28;20053;-71
2021/01/24 06:51:41;;;;;;;1.37;0.80;;;1.70;99.90;;;;;;4985172;28;20057;-71
2021/01/24 06:54:27;;;;;;;2.05;0.73;;;1.70;99.90;;;;;;4922915;29;20059;-71
2021/01/24 06:57:07;;;;;;;1.53;0.70;;;1.60;99.90;;;;;;4978220;28;20054;-71
2021/01/24 06:59:33;;;;;;;1.70;0.80;;;1.50;99.90;;;;;;4984085;28;20174;-70
2021/01/24 07:02:23;;;;;;;1.23;0.80;;;1.60;99.90;;;;;;4982448;28;20046;-70
2021/01/24 07:05:11;;;;;;;1.23;0.77;;;1.60;99.90;;;;;;4983445;28;20046;-70
2021/01/24 07:07:39;;;;;;;2.40;1.10;;;1.60;99.90;;;;;;4985780;28;20039;-70
2021/01/24 07:10:08;;;;;;;2.00;0.93;;;1.60;99.90;;;;;;4985474;28;20054;-71
2021/01/24 07:12:43;;;;;;;2.33;0.90;;;1.50;99.90;;;;;;4978660;28;20050;-71
2021/01/24 07:15:21;;;;;;;3.77;1.70;;;1.50;99.90;;;;;;4976763;28;20129;-70
2021/01/24 07:17:55;;;;;;;3.93;1.60;;;1.50;99.90;;;;;;4980953;28;20089;-71
2021/01/24 07:20:22;;;;;;;4.80;1.93;;;1.50;99.90;;;;;;4983516;28;20046;-69
2021/01/24 07:22:50;;;;;;;4.73;2.10;;;1.50;99.90;;;;;;4983677;28;20042;-70
2021/01/24 07:25:18;;;;;;;3.00;1.53;;;1.60;99.90;;;;;;4984422;28;20062;-69
2021/01/24 07:27:51;;;;;;;6.50;2.03;;;1.60;99.90;;;;;;4985058;28;20050;-69
2021/01/24 07:30:27;;;;;;;4.47;2.20;;;1.60;99.90;;;;;;4984913;28;20344;-68
2021/01/24 07:32:54;;;;;;;6.90;2.63;;;1.60;99.90;;;;;;4949023;28;1054047;-68
2021/01/24 07:35:22;;;;;;;6.07;2.63;;;1.60;99.90;;;;;;4981882;28;20043;-68
2021/01/24 07:37:52;;;;;;;6.67;2.57;;;1.60;99.90;;;;;;4984606;28;20057;-70
2021/01/24 07:40:22;;;;;;;6.20;2.47;;;1.50;99.90;;;;;;4985277;28;20109;-70
2021/01/24 07:42:50;;;;;;;7.53;2.93;;;1.50;99.90;;;;;;4983702;28;20054;-70
2021/01/24 07:45:16;;;;;;;8.70;3.37;;;1.40;99.90;;;;;;4985372;28;20061;-70
2021/01/24 07:47:43;;;;;;;6.70;3.30;;;1.40;99.90;;;;;;4985279;28;20058;-70
2021/01/24 07:50:10;;;;;;;7.77;3.83;;;1.30;99.90;;;;;;4985540;28;20460;-71
2021/01/24 07:52:37;;;;;;;9.30;4.40;;;1.20;99.90;;;;;;4983650;28;20046;-70
2021/01/24 07:55:05;;;;;;;6.87;2.77;;;1.20;99.90;;;;;;4985370;28;20286;-70
2021/01/24 07:57:31;;;;;;;5.17;3.03;;;1.20;99.90;;;;;;4979955;28;20451;-71
2021/01/24 07:59:59;;;;;;;9.10;3.50;;;1.10;99.90;;;;;;4983833;28;20051;-71
2021/01/24 08:02:27;;;;;;;8.27;3.63;;;1.10;99.90;;;;;;4987580;28;20519;-70
2021/01/24 08:04:54;;;;;;;9.67;3.87;;;1.10;99.90;;;;;;4987608;28;20042;-71
2021/01/24 08:07:20;;;;;;;9.60;3.60;;;1.10;99.90;;;;;;4988701;28;20887;-70
2021/01/24 08:09:47;;;;;;;9.87;4.57;;;1.10;99.90;;;;;;4989268;28;20050;-71
2021/01/24 08:12:14;;;;;;;10.20;4.87;;;1.10;99.90;;;;;;4989960;28;20105;-71
2021/01/24 08:14:41;;;;;;;9.60;4.30;;;1.20;99.90;;;;;;4988683;28;20046;-71
2021/01/24 08:17:13;;;;;;;8.70;3.77;;;1.10;99.90;;;;;;4989762;28;20407;-71
2021/01/24 08:19:40;;;;;;;7.10;3.27;;;1.10;99.90;;;;;;4989925;28;20050;-71
2021/01/24 08:22:07;;;;;;;10.47;5.07;;;1.10;99.90;;;;;;4987860;28;20051;-71
2021/01/24 08:24:34;;;;;;;9.60;4.80;;;1.10;99.90;;;;;;4988899;28;20448;-71
2021/01/24 08:27:01;;;;;;;9.40;3.07;;;1.10;99.90;;;;;;4989684;28;20523;-72
2021/01/24 08:29:34;;;;;;;8.50;4.10;;;1.10;99.90;;;;;;4989495;28;20063;-72
2021/01/24 08:32:02;;;;;;;7.70;3.77;;;1.00;99.90;;;;;;4987306;28;20425;-72
2021/01/24 08:34:29;;;;;;;8.80;3.80;;;1.10;99.90;;;;;;4987746;28;20050;-71
2021/01/24 08:36:57;;;;;;;8.87;4.30;;;1.00;99.90;;;;;;4988850;28;20051;-72
2021/01/24 08:39:24;;;;;;;8.17;4.07;;;1.00;99.90;;;;;;4989159;28;20137;-72
2021/01/24 08:41:53;;;;;;;10.70;4.13;;;0.90;99.90;;;;;;4989631;28;20051;-72
2021/01/24 08:44:20;;;;;;;9.57;4.27;;;0.90;99.90;;;;;;4988100;28;20137;-72
2021/01/24 08:46:48;;;;;;;12.03;4.23;;;0.80;99.90;;;;;;4988907;28;20108;-72
2021/01/24 08:49:22;;;;;;;15.40;6.20;;;0.80;99.90;;;;;;4988624;28;20050;-72
2021/01/24 08:51:52;;;;;;;9.67;3.23;;;0.90;99.90;;;;;;4989152;28;20086;-73
2021/01/24 08:54:24;;;;;;;8.50;3.67;;;0.80;99.90;;;;;;4990947;28;20054;-73
2021/01/24 08:56:52;;;;;;;8.87;4.50;;;0.80;99.90;;;;;;4991823;28;20420;-73
2021/01/24 08:59:24;;;;;;;9.83;3.80;;;0.80;99.90;;;;;;4990681;28;20053;-73
2021/01/24 09:01:53;;;;;;;9.00;4.03;;;0.80;99.90;;;;;;4990484;28;20096;-74
2021/01/24 09:04:27;;;;;;;15.40;5.67;;;0.70;99.90;;;;;;4990086;28;20046;-74
2021/01/24 09:07:17;;;;;;;11.43;4.80;;;0.80;99.90;;;;;;4991021;28;20424;-75
2021/01/24 09:09:45;;;;;;;13.07;4.43;;;0.80;99.90;;;;;;4986303;28;20145;-74
2021/01/24 09:12:14;;;;;;;9.60;4.53;;;0.70;99.90;;;;;;4990820;28;20408;-74
2021/01/24 09:14:41;;;;;;;10.00;2.93;;;0.70;99.90;;;;;;4990548;28;20141;-74
2021/01/24 09:17:10;;;;;;;9.30;3.60;;;0.70;99.90;;;;;;4990652;28;20050;-74
2021/01/24 09:19:38;;;;;;;9.97;4.50;;;0.70;99.90;;;;;;4989981;28;20393;-74
2021/01/24 09:22:07;;;;;;;10.60;4.63;;;0.80;99.90;;;;;;4990075;28;20101;-74
2021/01/24 09:24:34;;;;;;;10.50;4.13;;;0.80;99.90;;;;;;4990394;28;20113;-73
2021/01/24 09:27:01;;;;;;;10.57;4.80;;;0.80;99.90;;;;;;4990227;28;20567;-73
2021/01/24 09:29:28;;;;;;;5.97;2.53;;;0.80;99.90;;;;;;4989763;28;20054;-73
2021/01/24 09:31:55;;;;;;;14.60;3.13;;;0.80;99.90;;;;;;4990011;28;20398;-72
2021/01/24 09:34:21;;;;;;;8.63;3.80;;;0.80;99.90;;;;;;4988011;28;20062;-73
2021/01/24 09:36:48;;;;;;;10.83;4.03;;;0.80;99.90;;;;;;4990498;28;20105;-73
2021/01/24 09:39:15;;;;;;;9.27;4.03;;;0.80;99.90;;;;;;4989798;28;20069;-72
2021/01/24 09:41:42;;;;;;;9.80;4.27;;;0.90;99.90;;;;;;4990112;28;20420;-72
2021/01/24 09:44:09;;;;;;;11.83;3.13;;;0.80;99.90;;;;;;4989083;28;20062;-72
2021/01/24 09:46:36;;;;;;;7.63;2.60;;;0.80;99.90;;;;;;4990322;28;20054;-72
2021/01/24 09:49:03;;;;;;;11.33;4.67;;;0.80;99.90;;;;;;4988995;28;20552;-73
2021/01/24 09:51:29;;;;;;;7.17;3.10;;;0.80;99.90;;;;;;4990395;28;20054;-72
2021/01/24 09:53:56;;;;;;;8.17;3.73;;;0.80;99.90;;;;;;4987379;28;20053;-71
2021/01/24 09:56:24;;;;;;;10.07;4.37;;;0.80;99.90;;;;;;4987469;28;20277;-79
2021/01/24 09:58:53;;;;;;;14.03;5.90;;;0.80;99.90;;;;;;4992113;28;20492;-79
2021/01/24 10:01:22;;;;;;;8.33;3.67;;;0.90;99.90;;;;;;4991303;28;20054;-78
2021/01/24 10:03:50;;;;;;;9.07;4.27;;;0.80;99.90;;;;;;4985749;28;20046;-76
2021/01/24 10:06:18;;;;;;;8.50;3.30;;;0.80;99.90;;;;;;4988760;28;20074;-78
2021/01/24 10:08:45;;;;;;;11.77;5.20;;;0.80;99.90;;;;;;4988274;28;20050;-77
2021/01/24 10:11:12;;;;;;;7.77;3.87;;;0.80;99.90;;;;;;4987496;28;20108;-76
2021/01/24 10:13:39;;;;;;;8.17;3.17;;;0.80;99.90;;;;;;4992642;28;20129;-74
2021/01/24 10:16:08;;;;;;;10.97;4.80;;;0.80;99.90;;;;;;4988631;28;20049;-73
2021/01/24 10:18:34;;;;;;;8.93;3.67;;;0.70;99.90;;;;;;4989013;28;20100;-73
2021/01/24 10:21:01;;;;;;;8.53;3.67;;;0.80;99.90;;;;;;4989165;28;20066;-73
2021/01/24 10:23:28;;;;;;;7.17;3.03;;;0.70;99.90;;;;;;4986618;28;20054;-74
2021/01/24 10:25:56;;;;;;;10.50;3.70;;;0.70;99.90;;;;;;4987715;28;20212;-74
2021/01/24 10:28:23;;;;;;;10.10;3.83;;;0.80;99.90;;;;;;4987481;28;20061;-73
2021/01/24 10:30:51;;;;;;;7.77;3.43;;;0.80;99.90;;;;;;4986875;28;20089;-74
2021/01/24 10:33:19;;;;;;;9.43;4.57;;;0.80;99.90;;;;;;4984864;28;20054;-73
2021/01/24 10:35:46;;;;;;;8.60;3.93;;;0.90;99.90;;;;;;4986672;28;20515;-73
2021/01/24 10:38:12;;;;;;;13.73;4.27;;;0.90;99.90;;;;;;4986565;28;20113;-73
2021/01/24 10:40:39;;;;;;;10.47;4.73;;;1.00;99.90;;;;;;4987006;28;20555;-73
2021/01/24 10:43:06;;;;;;;7.30;3.57;;;1.00;99.90;;;;;;4985256;28;20043;-73
2021/01/24 10:45:33;;;;;;;12.57;5.33;;;1.10;99.90;;;;;;4986416;28;20562;-72
2021/01/24 10:48:01;;;;;;;9.57;4.20;;;1.00;99.90;;;;;;4986506;28;20061;-72
2021/01/24 10:50:30;;;;;;;11.80;5.40;;;1.10;99.90;;;;;;4969589;28;20046;-72
2021/01/24 10:52:57;;;;;;;8.73;3.93;;;1.00;99.90;;;;;;4965589;28;20055;-72
2021/01/24 10:55:24;;;;;;;7.40;2.87;;;1.00;99.90;;;;;;4966579;28;20054;-73
2021/01/24 10:57:51;;;;;;;6.53;2.80;;;0.90;99.90;;;;;;4966480;28;20054;-73
2021/01/24 11:00:18;;;;;;;7.20;3.10;;;1.00;99.90;;;;;;4966842;28;20055;-73
2021/01/24 11:02:45;;;;;;;11.00;4.77;;;0.90;99.90;;;;;;4972693;28;20109;-73
2021/01/24 11:05:12;;;;;;;11.77;5.63;;;0.90;99.90;;;;;;4986023;28;20058;-73
2021/01/24 11:07:40;;;;;;;8.13;3.30;;;1.00;99.90;;;;;;4985733;28;20054;-73
2021/01/24 11:10:08;;;;;;;10.07;3.93;;;1.00;99.90;;;;;;4986005;28;20050;-73
2021/01/24 11:12:35;;;;;;;7.83;2.77;;;1.00;99.90;;;;;;4984487;28;20050;-74
2021/01/24 11:15:01;;;;;;;7.77;3.73;;;1.00;99.90;;;;;;4986192;28;20057;-72
2021/01/24 11:17:28;;;;;;;9.57;3.70;;;1.00;99.90;;;;;;4985665;28;20051;-72
2021/01/24 11:19:54;;;;;;;9.07;3.97;;;1.00;99.90;;;;;;4986164;28;20164;-72
2021/01/24 11:22:22;;;;;;;9.60;3.60;;;1.10;99.90;;;;;;4978608;28;20077;-72
2021/01/24 11:24:49;;;;;;;8.77;3.50;;;1.10;99.90;;;;;;4988718;28;20057;-73
2021/01/24 11:27:16;;;;;;;8.20;3.87;;;1.00;99.90;;;;;;4987956;28;20054;-72
2021/01/24 11:29:43;;;;;;;8.07;3.93;;;1.10;99.90;;;;;;4986747;28;20046;-72
2021/01/24 11:32:11;;;;;;;5.87;3.03;;;1.10;99.90;;;;;;4986165;28;20058;-72
2021/01/24 11:34:38;;;;;;;9.30;3.80;;;1.10;99.90;;;;;;4985862;28;20046;-73
2021/01/24 11:37:05;;;;;;;3.43;1.87;;;1.10;99.90;;;;;;4987369;28;20448;-72
2021/01/24 11:39:32;;;;;;;8.97;3.47;;;1.00;99.90;;;;;;4983514;28;20038;-72
2021/01/24 11:42:00;;;;;;;5.83;3.13;;;1.00;99.90;;;;;;4983864;28;20051;-73
2021/01/24 11:44:26;;;;;;;7.50;3.37;;;1.00;99.90;;;;;;4983773;28;20057;-73
2021/01/24 11:46:54;;;;;;;7.97;3.20;;;1.00;99.90;;;;;;4975417;28;20356;-73
2021/01/24 11:49:21;;;;;;;7.77;3.50;;;1.00;99.90;;;;;;4979634;28;20057;-73
2021/01/24 11:51:47;;;;;;;4.27;1.83;;;1.00;99.90;;;;;;4980579;28;20345;-73
2021/01/24 11:54:14;;;;;;;9.93;3.63;;;0.90;99.90;;;;;;4973657;28;20069;-73
2021/01/24 11:56:41;;;;;;;5.87;2.57;;;1.00;99.90;;;;;;4986585;28;20081;-73
2021/01/24 11:59:09;;;;;;;9.87;2.93;;;1.00;99.90;;;;;;4988195;28;20111;-73
2021/01/24 12:01:36;;;;;;;2.50;1.30;;;1.00;99.90;;;;;;4986035;28;20501;-72
2021/01/24 12:04:02;;;;;;;8.00;3.27;;;0.90;99.90;;;;;;4984228;28;20046;-72
2021/01/24 12:06:29;;;;;;;4.13;1.67;;;1.00;99.90;;;;;;4986912;28;20425;-73
2021/01/24 12:08:56;;;;;;;3.93;1.70;;;0.90;99.90;;;;;;4988213;28;20054;-73
2021/01/24 12:11:22;;;;;;;9.10;3.20;;;0.90;99.90;;;;;;4985335;28;20050;-73
2021/01/24 12:13:49;;;;;;;6.27;3.10;;;0.90;99.90;;;;;;4984551;28;20760;-73
2021/01/24 12:16:16;;;;;;;5.87;2.60;;;1.00;99.90;;;;;;4985028;28;20409;-73
2021/01/24 12:18:43;;;;;;;7.03;2.97;;;1.00;99.90;;;;;;4982440;28;20758;-72
2021/01/24 12:21:10;;;;;;;6.27;2.63;;;1.00;99.90;;;;;;4980053;28;20050;-73
2021/01/24 12:23:37;;;;;;;6.13;2.40;;;1.00;99.90;;;;;;4978726;28;20054;-73
2021/01/24 12:26:04;;;;;;;5.40;2.70;;;1.00;99.90;;;;;;4979870;28;20528;-73
2021/01/24 12:28:30;;;;;;;6.43;2.80;;;1.00;99.90;;;;;;4980902;28;20046;-74
2021/01/24 12:30:57;;;;;;;6.83;3.00;;;1.10;99.90;;;;;;4968853;28;20600;-73
2021/01/24 12:33:24;;;;;;;5.17;2.83;;;1.10;99.90;;;;;;4970832;28;20050;-74
2021/01/24 12:35:53;;;;;;;7.53;2.60;;;1.20;99.90;;;;;;4981095;28;20061;-74
2021/01/24 12:38:19;;;;;;;6.07;2.43;;;1.20;99.90;;;;;;4983611;28;20515;-73
2021/01/24 12:40:46;;;;;;;6.30;2.17;;;1.20;99.90;;;;;;4984320;28;20531;-73
2021/01/24 12:43:12;;;;;;;6.67;2.30;;;1.20;99.90;;;;;;4983158;28;20203;-73
2021/01/24 12:45:39;;;;;;;4.87;2.03;;;1.20;99.90;;;;;;4985614;28;20053;-72
2021/01/24 12:48:06;;;;;;;3.77;1.63;;;1.20;99.90;;;;;;4987948;28;20159;-72
2021/01/24 12:50:34;;;;;;;4.67;2.07;;;1.30;99.90;;;;;;4987273;28;20116;-72
2021/01/24 12:53:00;;;;;;;5.40;2.17;;;1.40;99.90;;;;;;4975064;28;20059;-72